createdAt,value
2018-01-26T00:00:08.145Z,100003.55
2018-01-26T00:01:13.892Z,100006.94
2018-01-26T00:02:19.650Z,99999.89
2018-01-26T00:03:25.390Z,100004.31
2018-01-26T00:04:31.166Z,100000.00
2018-01-26T00:05:36.926Z,99995.68
2018-01-26T00:06:43.446Z,99993.09
2018-01-26T00:07:49.466Z,99997.70
2018-01-26T00:08:55.255Z,99996.34
2018-01-26T00:10:02.536Z,99994.61
2018-01-26T00:11:08.271Z,99986.69
2018-01-26T00:12:14.784Z,99993.13
2018-01-26T00:13:20.537Z,99996.53
2018-01-26T00:14:26.291Z,99993.98
2018-01-26T00:15:32.066Z,99994.02
2018-01-26T00:16:38.572Z,99989.67
2018-01-26T00:17:44.308Z,99987.44
2018-01-26T00:18:50.043Z,99986.94
2018-01-26T00:19:55.797Z,99986.44
2018-01-26T00:21:01.570Z,99984.59
2018-01-26T00:22:08.082Z,99982.70
2018-01-26T00:23:13.832Z,99987.28
2018-01-26T00:24:19.661Z,99993.91
2018-01-26T00:25:25.530Z,99991.28
2018-01-26T00:26:31.454Z,99984.13
2018-01-26T00:27:37.272Z,99985.53
2018-01-26T00:28:43.508Z,99985.87
2018-01-26T00:29:49.358Z,99975.55
2018-01-26T00:30:55.871Z,99984.30
2018-01-26T00:32:01.664Z,99981.86
2018-01-26T00:33:08.179Z,99980.05
2018-01-26T00:34:13.930Z,99975.23
2018-01-26T00:35:19.686Z,99978.84
2018-01-26T00:36:25.436Z,99969.68
2018-01-26T00:37:31.189Z,99970.67
2018-01-26T00:38:37.705Z,99973.66
2018-01-26T00:39:43.466Z,99969.09
2018-01-26T00:40:49.214Z,99964.62
2018-01-26T00:41:54.967Z,99964.82
2018-01-26T00:43:01.508Z,99971.59
2018-01-26T00:44:07.279Z,99970.78
2018-01-26T00:45:13.794Z,99974.94
2018-01-26T00:46:19.548Z,99977.13
2018-01-26T00:47:25.304Z,99975.62
2018-01-26T00:48:31.066Z,99979.70
2018-01-26T00:49:37.588Z,99982.92
2018-01-26T00:50:43.350Z,99973.62
2018-01-26T00:51:49.871Z,99969.80
2018-01-26T00:52:55.615Z,99972.13
2018-01-26T00:54:01.428Z,99972.41
2018-01-26T00:55:07.170Z,99979.48
2018-01-26T00:56:12.904Z,99974.17
2018-01-26T00:57:18.645Z,99981.91
2018-01-26T00:58:24.414Z,99971.50
2018-01-26T00:59:30.190Z,99968.91
2018-01-26T01:00:35.618Z,99973.86
2018-01-26T01:01:41.354Z,99969.36
2018-01-26T01:02:47.088Z,99964.58
2018-01-26T01:03:52.858Z,99967.52
2018-01-26T01:04:59.065Z,99969.72
2018-01-26T01:06:04.819Z,99973.97
2018-01-26T01:07:10.565Z,99980.20
2018-01-26T01:08:16.302Z,99974.73
2018-01-26T01:09:22.331Z,99975.19
2018-01-26T01:10:28.112Z,99977.45
2018-01-26T01:11:33.850Z,99972.88
2018-01-26T01:12:39.585Z,99981.34
2018-01-26T01:13:46.865Z,99977.11
2018-01-26T01:14:52.596Z,99979.09
2018-01-26T01:15:58.399Z,99977.63
2018-01-26T01:17:04.156Z,99978.30
2018-01-26T01:18:09.902Z,99975.17
2018-01-26T01:19:15.639Z,99973.22
2018-01-26T01:20:21.380Z,99966.98
2018-01-26T01:21:27.136Z,99969.22
2018-01-26T01:22:32.899Z,99968.59
2018-01-26T01:23:40.156Z,99968.77
2018-01-26T01:24:45.915Z,99961.45
2018-01-26T01:25:51.649Z,99967.92
2018-01-26T01:26:57.416Z,99961.38
2018-01-26T01:28:03.172Z,99958.44
2018-01-26T01:29:09.682Z,99957.46
2018-01-26T01:30:15.432Z,99965.62
2018-01-26T01:31:21.179Z,99958.75
2018-01-26T01:32:26.939Z,99958.33
2018-01-26T01:33:34.194Z,99966.72
2018-01-26T01:34:39.937Z,99955.16
2018-01-26T01:35:45.681Z,99954.34
2018-01-26T01:36:51.441Z,99958.27
2018-01-26T01:37:57.228Z,99954.52
2018-01-26T01:39:02.978Z,99948.23
2018-01-26T01:40:08.737Z,99946.45
2018-01-26T01:41:14.475Z,99948.61
2018-01-26T01:42:20.235Z,99948.08
2018-01-26T01:43:26.777Z,99946.88
2018-01-26T01:44:32.517Z,99947.56
2018-01-26T01:45:38.266Z,99945.02
2018-01-26T01:46:44.024Z,99952.41
2018-01-26T01:47:49.759Z,99947.04
2018-01-26T01:49:12.390Z,99951.57
2018-01-26T01:50:18.160Z,99955.65
2018-01-26T01:51:24.667Z,99957.38
2018-01-26T01:52:30.484Z,99948.97
2018-01-26T01:53:36.993Z,99952.64
2018-01-26T01:54:42.762Z,99951.48
2018-01-26T01:55:48.486Z,99958.91
2018-01-26T01:56:54.228Z,99949.63
2018-01-26T01:58:00.055Z,99950.80
2018-01-26T01:59:05.787Z,99952.22
2018-01-26T02:00:11.597Z,99949.63
2018-01-26T02:01:17.329Z,99946.56
2018-01-26T02:02:23.860Z,99952.64
2018-01-26T02:03:29.587Z,99953.77
2018-01-26T02:04:35.328Z,99954.20
2018-01-26T02:05:41.110Z,99959.65
2018-01-26T02:06:47.627Z,99956.56
2018-01-26T02:07:53.391Z,99956.95
2018-01-26T02:08:59.180Z,99950.41
2018-01-26T02:10:04.926Z,99946.34
2018-01-26T02:11:10.698Z,99940.61
2018-01-26T02:12:16.420Z,99936.26
2018-01-26T02:13:22.179Z,99936.05
2018-01-26T02:14:27.946Z,99938.63
2018-01-26T02:15:34.461Z,99934.31
2018-01-26T02:16:40.239Z,99932.72
2018-01-26T02:17:46.796Z,99933.89
2018-01-26T02:18:53.327Z,99928.65
2018-01-26T02:19:59.088Z,99936.43
2018-01-26T02:21:05.731Z,99932.54
2018-01-26T02:22:12.047Z,99929.00
2018-01-26T02:23:17.802Z,99936.19
2018-01-26T02:24:23.548Z,99930.48
2018-01-26T02:25:29.304Z,99925.33
2018-01-26T02:26:35.051Z,99921.05
2018-01-26T02:27:40.827Z,99925.39
2018-01-26T02:28:46.574Z,99928.90
2018-01-26T02:29:53.078Z,99922.74
2018-01-26T02:30:58.812Z,99925.61
2018-01-26T02:32:04.334Z,99922.46
2018-01-26T02:33:10.124Z,99923.70
2018-01-26T02:34:15.856Z,99922.63
2018-01-26T02:35:21.609Z,99926.91
2018-01-26T02:36:27.368Z,99923.77
2018-01-26T02:37:33.887Z,99919.38
2018-01-26T02:38:39.649Z,99925.88
2018-01-26T02:39:45.394Z,99927.02
2018-01-26T02:40:51.151Z,99927.05
2018-01-26T02:41:56.885Z,99921.05
2018-01-26T02:43:02.640Z,99926.32
2018-01-26T02:44:09.185Z,99925.50
2018-01-26T02:45:14.944Z,99927.27
2018-01-26T02:46:21.471Z,99927.73
2018-01-26T02:47:27.484Z,99930.50
2018-01-26T02:48:33.241Z,99934.14
2018-01-26T02:49:39.036Z,99936.72
2018-01-26T02:50:45.551Z,99942.70
2018-01-26T02:51:51.283Z,99936.40
2018-01-26T02:52:57.044Z,99934.31
2018-01-26T02:54:02.791Z,99929.70
2018-01-26T02:55:08.571Z,99931.83
2018-01-26T02:56:14.330Z,99934.05
2018-01-26T02:57:20.083Z,99929.24
2018-01-26T02:58:25.906Z,99930.09
2018-01-26T02:59:31.663Z,99932.00
2018-01-26T03:00:37.446Z,99930.78
2018-01-26T03:01:43.986Z,99932.25
2018-01-26T03:02:49.729Z,99931.94
2018-01-26T03:03:55.516Z,99934.91
2018-01-26T03:05:02.038Z,99928.29
2018-01-26T03:06:07.819Z,99927.48
2018-01-26T03:07:14.324Z,99934.48
2018-01-26T03:08:20.066Z,99931.05
2018-01-26T03:09:25.804Z,99931.20
2018-01-26T03:10:31.535Z,99932.41
2018-01-26T03:11:37.308Z,99934.03
2018-01-26T03:12:44.611Z,99933.42
2018-01-26T03:13:51.114Z,99929.34
2018-01-26T03:14:56.855Z,99926.50
2018-01-26T03:16:02.618Z,99931.20
2018-01-26T03:17:08.383Z,99925.43
2018-01-26T03:18:14.141Z,99930.59
2018-01-26T03:19:20.662Z,99933.11
2018-01-26T03:20:26.397Z,99928.78
2018-01-26T03:21:32.143Z,99928.78
2018-01-26T03:22:38.278Z,99930.98
2018-01-26T03:23:44.080Z,99925.86
2018-01-26T03:24:49.818Z,99931.24
2018-01-26T03:25:56.313Z,99929.71
2018-01-26T03:27:02.073Z,99933.18
2018-01-26T03:28:07.826Z,99938.34
2018-01-26T03:29:13.549Z,99938.77
2018-01-26T03:30:19.271Z,99939.05
2018-01-26T03:31:25.108Z,99938.47
2018-01-26T03:32:30.846Z,99943.56
2018-01-26T03:33:36.439Z,99943.18
2018-01-26T03:34:42.188Z,99940.06
2018-01-26T03:35:47.912Z,99943.91
2018-01-26T03:36:53.651Z,99942.45
2018-01-26T03:37:59.388Z,99941.25
2018-01-26T03:39:04.385Z,99938.98
2018-01-26T03:40:10.134Z,99945.39
2018-01-26T03:41:15.864Z,99940.00
2018-01-26T03:42:21.694Z,99946.52
2018-01-26T03:43:28.198Z,99944.70
2018-01-26T03:44:33.956Z,99949.91
2018-01-26T03:45:39.716Z,99949.87
2018-01-26T03:46:46.235Z,99947.14
2018-01-26T03:47:51.965Z,99956.27
2018-01-26T03:48:57.706Z,99956.23
2018-01-26T03:50:03.489Z,99954.58
2018-01-26T03:51:10.005Z,99961.91
2018-01-26T03:52:15.843Z,99961.30
2018-01-26T03:53:21.603Z,99963.23
2018-01-26T03:54:27.339Z,99965.27
2018-01-26T03:55:33.095Z,99960.38
2018-01-26T03:56:38.843Z,99965.86
2018-01-26T03:57:44.594Z,99967.12
2018-01-26T03:58:50.328Z,99962.63
2018-01-26T03:59:56.083Z,99966.62
2018-01-26T04:01:02.627Z,99964.36
2018-01-26T04:02:08.378Z,99962.12
2018-01-26T04:03:14.109Z,99969.48
2018-01-26T04:04:19.844Z,99974.54
2018-01-26T04:05:25.617Z,99969.56
2018-01-26T04:06:32.139Z,99972.50
2018-01-26T04:07:37.887Z,99973.31
2018-01-26T04:08:43.627Z,99975.89
2018-01-26T04:09:49.422Z,99973.77
2018-01-26T04:10:54.995Z,99976.78
2018-01-26T04:12:00.789Z,99970.50
2018-01-26T04:13:07.293Z,99973.05
2018-01-26T04:14:13.056Z,99977.28
2018-01-26T04:15:19.568Z,99979.76
2018-01-26T04:16:25.292Z,99977.60
2018-01-26T04:17:31.077Z,99977.48
2018-01-26T04:18:36.816Z,99973.51
2018-01-26T04:19:42.629Z,99981.19
2018-01-26T04:20:48.373Z,99981.66
2018-01-26T04:21:54.122Z,99979.11
2018-01-26T04:22:59.900Z,99984.23
2018-01-26T04:24:05.692Z,99988.63
2018-01-26T04:25:11.447Z,99987.05
2018-01-26T04:26:17.279Z,99986.28
2018-01-26T04:27:23.790Z,99991.06
2018-01-26T04:28:29.576Z,99986.23
2018-01-26T04:29:35.893Z,99992.98
2018-01-26T04:30:41.620Z,99998.89
2018-01-26T04:31:47.369Z,100005.30
2018-01-26T04:32:53.134Z,100009.13
2018-01-26T04:33:59.691Z,100007.31
2018-01-26T04:35:06.222Z,100004.56
2018-01-26T04:36:11.964Z,100008.54
2018-01-26T04:37:17.747Z,100007.19
2018-01-26T04:38:24.254Z,100006.34
2018-01-26T04:39:30.064Z,100006.06
2018-01-26T04:40:35.825Z,100007.30
2018-01-26T04:41:41.590Z,100008.97
2018-01-26T04:42:47.341Z,100010.42
2018-01-26T04:43:53.081Z,100009.58
2018-01-26T04:44:58.854Z,100012.63
2018-01-26T04:46:05.442Z,100008.84
2018-01-26T04:47:11.208Z,100010.00
2018-01-26T04:48:16.977Z,100015.36
2018-01-26T04:49:22.730Z,100008.03
2018-01-26T04:50:29.277Z,100009.66
2018-01-26T04:51:35.034Z,100012.47
2018-01-26T04:52:40.772Z,100015.98
2018-01-26T04:53:46.509Z,100013.05
2018-01-26T04:54:53.025Z,100015.20
2018-01-26T04:55:58.790Z,100012.38
2018-01-26T04:57:04.555Z,100012.38
2018-01-26T04:58:10.310Z,100010.22
2018-01-26T04:59:16.832Z,100015.51
2018-01-26T05:00:22.604Z,100016.36
2018-01-26T05:01:29.146Z,100021.14
2018-01-26T05:02:36.399Z,100021.71
2018-01-26T05:03:42.154Z,100018.31
2018-01-26T05:04:47.912Z,100020.63
2018-01-26T05:05:53.667Z,100020.59
2018-01-26T05:07:00.208Z,100024.48
2018-01-26T05:08:05.978Z,100017.51
2018-01-26T05:09:11.725Z,100023.48
2018-01-26T05:10:17.485Z,100014.20
2018-01-26T05:11:23.255Z,100016.63
2018-01-26T05:12:29.028Z,100018.30
2018-01-26T05:13:34.775Z,100023.35
2018-01-26T05:14:41.281Z,100025.19
2018-01-26T05:15:47.088Z,100030.48
2018-01-26T05:16:52.832Z,100027.25
2018-01-26T05:17:59.383Z,100029.02
2018-01-26T05:19:05.884Z,100029.75
2018-01-26T05:20:11.641Z,100028.02
2018-01-26T05:21:17.385Z,100034.96
2018-01-26T05:22:23.138Z,100033.69
2018-01-26T05:23:28.908Z,100035.19
2018-01-26T05:24:35.419Z,100036.83
2018-01-26T05:25:41.184Z,100030.73
2018-01-26T05:26:46.947Z,100031.09
2018-01-26T05:27:54.198Z,100031.36
2018-01-26T05:29:00.053Z,100033.06
2018-01-26T05:30:05.970Z,100022.15
2018-01-26T05:31:11.711Z,100025.91
2018-01-26T05:32:17.468Z,100026.91
2018-01-26T05:33:23.237Z,100022.17
2018-01-26T05:34:29.795Z,100021.43
2018-01-26T05:35:36.319Z,100020.40
2018-01-26T05:36:42.083Z,100027.34
2018-01-26T05:37:48.616Z,100029.54
2018-01-26T05:38:54.372Z,100039.48
2018-01-26T05:40:00.149Z,100032.41
2018-01-26T05:41:06.456Z,100033.71
2018-01-26T05:42:12.207Z,100035.55
2018-01-26T05:43:17.947Z,100033.63
2018-01-26T05:44:23.710Z,100033.13
2018-01-26T05:45:29.457Z,100036.19
2018-01-26T05:46:35.975Z,100036.30
2018-01-26T05:47:41.701Z,100034.59
2018-01-26T05:48:47.436Z,100038.06
2018-01-26T05:49:53.985Z,100048.55
2018-01-26T05:50:59.914Z,100043.92
2018-01-26T05:52:06.430Z,100040.23
2018-01-26T05:53:12.173Z,100041.22
2018-01-26T05:54:17.900Z,100037.78
2018-01-26T05:55:23.654Z,100043.84
2018-01-26T05:56:29.409Z,100044.45
2018-01-26T05:57:35.154Z,100043.29
2018-01-26T05:58:40.909Z,100040.28
2018-01-26T05:59:47.404Z,100044.98
2018-01-26T06:00:53.163Z,100043.99
2018-01-26T06:01:58.929Z,100044.37
2018-01-26T06:03:04.676Z,100049.34
2018-01-26T06:04:10.403Z,100052.67
2018-01-26T06:05:16.138Z,100055.83
2018-01-26T06:06:21.883Z,100054.94
2018-01-26T06:07:27.643Z,100060.79
2018-01-26T06:08:34.137Z,100062.59
2018-01-26T06:09:39.893Z,100059.87
2018-01-26T06:10:45.685Z,100062.84
2018-01-26T06:11:51.471Z,100066.88
2018-01-26T06:12:57.232Z,100064.22
2018-01-26T06:14:03.010Z,100062.84
2018-01-26T06:15:10.341Z,100063.66
2018-01-26T06:16:16.083Z,100065.35
2018-01-26T06:17:21.660Z,100068.90
2018-01-26T06:18:27.438Z,100067.69
2018-01-26T06:19:34.082Z,100068.44
2018-01-26T06:20:39.828Z,100069.28
2018-01-26T06:21:45.391Z,100068.36
2018-01-26T06:22:51.199Z,100072.33
2018-01-26T06:23:56.956Z,100078.46
2018-01-26T06:25:03.290Z,100078.42
2018-01-26T06:26:08.860Z,100080.56
2018-01-26T06:27:14.426Z,100086.05
2018-01-26T06:28:20.007Z,100088.22
2018-01-26T06:29:25.613Z,100091.33
2018-01-26T06:30:31.261Z,100095.27
2018-01-26T06:31:37.002Z,100096.50
2018-01-26T06:32:42.745Z,100100.47
2018-01-26T06:33:48.511Z,100108.37
2018-01-26T06:34:55.070Z,100107.59
2018-01-26T06:36:01.577Z,100109.89
2018-01-26T06:37:07.335Z,100116.95
2018-01-26T06:38:13.086Z,100119.88
2018-01-26T06:39:18.864Z,100117.72
2018-01-26T06:40:25.388Z,100117.02
2018-01-26T06:41:31.143Z,100117.94
2018-01-26T06:42:36.876Z,100127.61
2018-01-26T06:43:42.736Z,100120.59
2018-01-26T06:44:48.490Z,100123.81
2018-01-26T06:45:55.330Z,100129.38
2018-01-26T06:47:01.516Z,100130.53
2018-01-26T06:48:08.136Z,100126.54
2018-01-26T06:49:14.678Z,100128.84
2018-01-26T06:50:20.577Z,100124.02
2018-01-26T06:51:27.419Z,100130.86
2018-01-26T06:52:33.217Z,100125.16
2018-01-26T06:53:39.006Z,100130.93
2018-01-26T06:54:45.517Z,100134.79
2018-01-26T06:55:51.289Z,100137.38
2018-01-26T06:56:57.056Z,100133.02
2018-01-26T06:58:03.220Z,100139.50
2018-01-26T06:59:09.801Z,100136.88
2018-01-26T07:00:16.422Z,100140.25
2018-01-26T07:01:22.595Z,100139.81
2018-01-26T07:02:29.967Z,100142.19
2018-01-26T07:03:37.296Z,100148.81
2018-01-26T07:04:43.997Z,100149.73
2018-01-26T07:05:51.242Z,100152.91
2018-01-26T07:06:57.005Z,100148.66
2018-01-26T07:08:03.143Z,100153.62
2018-01-26T07:09:09.711Z,100158.78
2018-01-26T07:10:15.747Z,100161.87
2018-01-26T07:11:21.814Z,100161.58
2018-01-26T07:12:27.908Z,100161.22
2018-01-26T07:13:33.916Z,100170.88
2018-01-26T07:14:39.961Z,100163.13
2018-01-26T07:15:46.781Z,100168.66
2018-01-26T07:16:52.381Z,100161.02
2018-01-26T07:17:58.156Z,100166.19
2018-01-26T07:19:04.005Z,100163.56
2018-01-26T07:20:09.597Z,100163.85
2018-01-26T07:21:16.190Z,100174.47
2018-01-26T07:22:22.148Z,100169.66
2018-01-26T07:23:28.196Z,100172.31
2018-01-26T07:24:33.997Z,100176.17
2018-01-26T07:25:40.520Z,100179.58
2018-01-26T07:26:47.332Z,100183.08
2018-01-26T07:27:54.146Z,100188.91
2018-01-26T07:28:59.994Z,100185.09
2018-01-26T07:30:05.787Z,100186.11
2018-01-26T07:31:12.339Z,100190.04
2018-01-26T07:32:18.866Z,100193.08
2018-01-26T07:33:25.121Z,100199.17
2018-01-26T07:34:30.921Z,100194.78
2018-01-26T07:35:37.370Z,100196.06
2018-01-26T07:36:43.180Z,100197.02
2018-01-26T07:37:49.306Z,100195.57
2018-01-26T07:38:55.105Z,100197.02
2018-01-26T07:40:00.868Z,100192.55
2018-01-26T07:41:07.054Z,100191.96
2018-01-26T07:42:12.849Z,100201.16
2018-01-26T07:43:18.674Z,100200.92
2018-01-26T07:44:25.356Z,100210.66
2018-01-26T07:45:31.260Z,100208.73
2018-01-26T07:46:37.122Z,100210.28
2018-01-26T07:47:43.642Z,100209.83
2018-01-26T07:48:49.364Z,100207.18
2018-01-26T07:49:54.983Z,100207.57
2018-01-26T07:51:00.733Z,100212.81
2018-01-26T07:52:06.570Z,100210.91
2018-01-26T07:53:12.389Z,100213.66
2018-01-26T07:54:18.161Z,100208.45
2018-01-26T07:55:23.937Z,100211.02
2018-01-26T07:56:29.804Z,100209.11
2018-01-26T07:57:35.592Z,100216.05
2018-01-26T07:58:41.510Z,100212.97
2018-01-26T07:59:48.086Z,100219.45
2018-01-26T08:00:54.032Z,100219.55
2018-01-26T08:02:00.855Z,100221.81
2018-01-26T08:03:07.723Z,100229.96
2018-01-26T08:04:16.810Z,100223.84
2018-01-26T08:05:22.425Z,100223.45
2018-01-26T08:06:28.019Z,100224.20
2018-01-26T08:07:33.917Z,100227.60
2018-01-26T08:08:39.531Z,100223.64
2018-01-26T08:09:45.955Z,100227.60
2018-01-26T08:10:51.846Z,100225.77
2018-01-26T08:11:57.637Z,100222.59
2018-01-26T08:13:03.971Z,100219.93
2018-01-26T08:14:10.537Z,100221.03
2018-01-26T08:15:16.475Z,100222.11
2018-01-26T08:16:22.189Z,100225.94
2018-01-26T08:17:28.736Z,100221.31
2018-01-26T08:18:35.142Z,100221.07
2018-01-26T08:19:41.071Z,100221.14
2018-01-26T08:20:46.801Z,100220.25
2018-01-26T08:21:52.566Z,100223.20
2018-01-26T08:22:58.333Z,100228.66
2018-01-26T08:24:04.821Z,100222.81
2018-01-26T08:25:10.559Z,100220.98
2018-01-26T08:26:16.433Z,100228.38
2018-01-26T08:27:22.332Z,100224.80
2018-01-26T08:28:28.055Z,100227.72
2018-01-26T08:29:34.543Z,100225.77
2018-01-26T08:30:40.293Z,100227.86
2018-01-26T08:31:46.040Z,100230.34
2018-01-26T08:32:51.858Z,100231.62
2018-01-26T08:33:57.628Z,100235.91
2018-01-26T08:35:03.371Z,100236.16
2018-01-26T08:36:09.148Z,100237.95
2018-01-26T08:37:15.027Z,100244.13
2018-01-26T08:38:20.899Z,100246.04
2018-01-26T08:39:26.675Z,100250.62
2018-01-26T08:40:33.931Z,100246.54
2018-01-26T08:41:39.741Z,100257.78
2018-01-26T08:42:46.287Z,100254.13
2018-01-26T08:43:52.791Z,100262.00
2018-01-26T08:44:58.507Z,100266.59
2018-01-26T08:46:04.228Z,100264.76
2018-01-26T08:47:11.001Z,100264.33
2018-01-26T08:48:16.775Z,100270.53
2018-01-26T08:49:22.735Z,100271.21
2018-01-26T08:50:28.834Z,100271.63
2018-01-26T08:51:35.006Z,100264.72
2018-01-26T08:52:40.767Z,100265.58
2018-01-26T08:53:46.513Z,100264.45
2018-01-26T08:54:52.414Z,100266.32
2018-01-26T08:55:57.994Z,100270.93
2018-01-26T08:57:04.375Z,100274.48
2018-01-26T08:58:10.212Z,100272.24
2018-01-26T08:59:15.977Z,100277.56
2018-01-26T09:00:22.489Z,100277.87
2018-01-26T09:01:28.296Z,100281.60
2018-01-26T09:02:34.030Z,100277.88
2018-01-26T09:03:40.609Z,100281.53
2018-01-26T09:04:46.644Z,100281.95
2018-01-26T09:05:53.162Z,100289.69
2018-01-26T09:06:59.215Z,100280.02
2018-01-26T09:08:05.145Z,100286.14
2018-01-26T09:09:10.938Z,100281.89
2018-01-26T09:10:17.091Z,100277.42
2018-01-26T09:11:22.851Z,100279.94
2018-01-26T09:12:28.627Z,100281.01
2018-01-26T09:13:34.372Z,100281.29
2018-01-26T09:14:40.332Z,100284.66
2018-01-26T09:15:46.841Z,100289.27
2018-01-26T09:16:52.613Z,100292.70
2018-01-26T09:17:58.459Z,100293.70
2018-01-26T09:19:04.787Z,100292.39
2018-01-26T09:20:10.604Z,100293.38
2018-01-26T09:21:16.549Z,100299.66
2018-01-26T09:22:22.356Z,100294.62
2018-01-26T09:23:28.114Z,100297.06
2018-01-26T09:24:33.881Z,100300.43
2018-01-26T09:25:39.831Z,100301.59
2018-01-26T09:26:46.247Z,100297.59
2018-01-26T09:27:53.551Z,100304.85
2018-01-26T09:29:00.224Z,100309.68
2018-01-26T09:30:06.090Z,100311.81
2018-01-26T09:31:12.006Z,100311.74
2018-01-26T09:32:18.083Z,100312.84
2018-01-26T09:33:23.906Z,100313.47
2018-01-26T09:34:29.825Z,100315.67
2018-01-26T09:35:36.364Z,100317.77
2018-01-26T09:36:42.211Z,100316.66
2018-01-26T09:37:48.916Z,100316.55
2018-01-26T09:38:54.869Z,100317.86
2018-01-26T09:40:00.814Z,100325.28
2018-01-26T09:41:06.572Z,100324.39
2018-01-26T09:42:13.123Z,100326.28
2018-01-26T09:43:19.003Z,100333.23
2018-01-26T09:44:25.570Z,100336.56
2018-01-26T09:45:31.544Z,100335.17
2018-01-26T09:46:38.070Z,100338.69
2018-01-26T09:47:43.943Z,100338.66
2018-01-26T09:48:50.324Z,100343.87
2018-01-26T09:49:56.090Z,100338.61
2018-01-26T09:51:01.825Z,100342.98
2018-01-26T09:52:07.747Z,100342.55
2018-01-26T09:53:13.700Z,100340.50
2018-01-26T09:54:19.600Z,100344.37
2018-01-26T09:55:25.364Z,100345.29
2018-01-26T09:56:32.575Z,100347.53
2018-01-26T09:57:38.304Z,100351.00
2018-01-26T09:58:44.107Z,100350.08
2018-01-26T09:59:49.832Z,100344.89
2018-01-26T10:00:55.619Z,100346.05
2018-01-26T10:02:01.091Z,100346.44
2018-01-26T10:03:06.819Z,100348.26
2018-01-26T10:04:12.578Z,100346.91
2018-01-26T10:05:18.691Z,100348.92
2018-01-26T10:06:24.440Z,100350.23
2018-01-26T10:07:30.191Z,100352.58
2018-01-26T10:08:35.807Z,100346.84
2018-01-26T10:09:41.604Z,100349.53
2018-01-26T10:10:47.367Z,100352.42
2018-01-26T10:11:53.903Z,100356.26
2018-01-26T10:12:59.651Z,100357.50
2018-01-26T10:14:05.376Z,100351.78
2018-01-26T10:15:11.150Z,100355.72
2018-01-26T10:16:17.668Z,100355.37
2018-01-26T10:17:23.132Z,100360.42
2018-01-26T10:18:29.693Z,100360.64
2018-01-26T10:19:35.604Z,100363.42
2018-01-26T10:20:41.364Z,100365.23
2018-01-26T10:21:47.105Z,100370.09
2018-01-26T10:22:52.909Z,100369.06
2018-01-26T10:23:58.458Z,100366.40
2018-01-26T10:25:04.215Z,100368.84
2018-01-26T10:26:10.010Z,100367.20
2018-01-26T10:27:16.700Z,100367.95
2018-01-26T10:28:22.531Z,100371.47
2018-01-26T10:29:28.498Z,100372.59
2018-01-26T10:30:34.319Z,100365.92
2018-01-26T10:31:40.120Z,100379.80
2018-01-26T10:32:45.964Z,100369.25
2018-01-26T10:33:51.795Z,100373.86
2018-01-26T10:34:57.622Z,100376.83
2018-01-26T10:36:03.361Z,100379.31
2018-01-26T10:37:09.168Z,100379.23
2018-01-26T10:38:14.988Z,100380.25
2018-01-26T10:39:20.841Z,100386.64
2018-01-26T10:40:26.700Z,100384.78
2018-01-26T10:41:32.647Z,100381.31
2018-01-26T10:42:39.202Z,100381.70
2018-01-26T10:43:45.801Z,100385.45
2018-01-26T10:44:51.549Z,100388.66
2018-01-26T10:45:57.328Z,100387.48
2018-01-26T10:47:03.860Z,100390.65
2018-01-26T10:48:09.619Z,100390.72
2018-01-26T10:49:15.367Z,100394.54
2018-01-26T10:50:21.243Z,100392.91
2018-01-26T10:51:27.094Z,100390.17
2018-01-26T10:52:33.054Z,100395.14
2018-01-26T10:53:38.605Z,100404.49
2018-01-26T10:54:44.372Z,100399.58
2018-01-26T10:55:50.145Z,100398.59
2018-01-26T10:56:56.686Z,100398.17
2018-01-26T10:58:03.199Z,100401.95
2018-01-26T10:59:09.252Z,100410.30
2018-01-26T11:00:15.048Z,100401.74
2018-01-26T11:01:20.824Z,100409.59
2018-01-26T11:02:27.385Z,100410.59
2018-01-26T11:03:33.138Z,100412.83
2018-01-26T11:04:39.076Z,100409.97
2018-01-26T11:05:44.901Z,100419.63
2018-01-26T11:06:50.706Z,100420.55
2018-01-26T11:08:03.549Z,100427.47
2018-01-26T11:09:14.425Z,100423.95
2018-01-26T11:10:20.422Z,100423.87
2018-01-26T11:11:26.966Z,100427.82
2018-01-26T11:12:32.690Z,100425.40
2018-01-26T11:13:38.436Z,100425.56
2018-01-26T11:14:44.191Z,100428.90
2018-01-26T11:15:51.717Z,100423.06
2018-01-26T11:16:57.501Z,100428.99
2018-01-26T11:18:03.239Z,100430.97
2018-01-26T11:19:08.993Z,100434.34
2018-01-26T11:20:14.641Z,100434.84
2018-01-26T11:21:20.409Z,100444.12
2018-01-26T11:22:26.263Z,100442.56
2018-01-26T11:23:32.383Z,100435.17
2018-01-26T11:24:38.909Z,100435.45
2018-01-26T11:25:44.722Z,100440.59
2018-01-26T11:26:50.662Z,100440.67
2018-01-26T11:27:56.509Z,100433.17
2018-01-26T11:29:02.251Z,100436.73
2018-01-26T11:30:08.073Z,100446.39
2018-01-26T11:31:14.572Z,100437.01
2018-01-26T11:32:20.324Z,100440.02
2018-01-26T11:33:26.371Z,100437.47
2018-01-26T11:34:32.149Z,100445.44
2018-01-26T11:35:37.876Z,100448.28
2018-01-26T11:36:44.848Z,100448.50
2018-01-26T11:37:50.651Z,100446.24
2018-01-26T11:38:56.737Z,100452.64
2018-01-26T11:40:02.478Z,100454.10
2018-01-26T11:41:08.384Z,100456.56
2018-01-26T11:42:14.217Z,100457.95
2018-01-26T11:43:20.488Z,100451.80
2018-01-26T11:44:27.408Z,100458.55
2018-01-26T11:45:33.254Z,100456.00
2018-01-26T11:46:39.040Z,100461.18
2018-01-26T11:47:45.071Z,100460.69
2018-01-26T11:48:51.228Z,100454.04
2018-01-26T11:49:57.056Z,100454.11
2018-01-26T11:51:02.828Z,100456.39
2018-01-26T11:52:08.624Z,100457.17
2018-01-26T11:53:14.822Z,100455.86
2018-01-26T11:54:20.625Z,100460.47
2018-01-26T11:55:27.145Z,100463.20
2018-01-26T11:56:33.166Z,100459.91
2018-01-26T11:57:38.919Z,100466.48
2018-01-26T11:58:44.645Z,100454.19
2018-01-26T11:59:50.489Z,100456.36
2018-01-26T12:00:56.389Z,100455.33
2018-01-26T12:02:02.118Z,100455.97
2018-01-26T12:03:07.899Z,100449.19
2018-01-26T12:04:13.895Z,100451.74
2018-01-26T12:05:19.900Z,100446.34
2018-01-26T12:06:25.629Z,100451.56
2018-01-26T12:07:32.143Z,100453.84
2018-01-26T12:08:37.917Z,100445.56
2018-01-26T12:09:43.840Z,100451.35
2018-01-26T12:10:50.410Z,100455.26
2018-01-26T12:11:57.014Z,100453.48
2018-01-26T12:13:02.772Z,100456.07
2018-01-26T12:14:08.340Z,100459.88
2018-01-26T12:15:14.145Z,100462.39
2018-01-26T12:16:20.016Z,100467.08
2018-01-26T12:17:25.775Z,100466.19
2018-01-26T12:18:31.519Z,100463.70
2018-01-26T12:19:37.079Z,100465.09
2018-01-26T12:20:43.612Z,100470.09
2018-01-26T12:21:50.016Z,100474.92
2018-01-26T12:22:55.754Z,100477.70
2018-01-26T12:24:01.529Z,100475.89
2018-01-26T12:25:07.272Z,100482.84
2018-01-26T12:26:14.601Z,100478.69
2018-01-26T12:27:20.658Z,100482.09
2018-01-26T12:28:26.940Z,100479.19
2018-01-26T12:29:34.368Z,100483.52
2018-01-26T12:30:40.737Z,100481.17
2018-01-26T12:31:47.294Z,100486.32
2018-01-26T12:32:54.927Z,100487.28
2018-01-26T12:34:00.493Z,100485.83
2018-01-26T12:35:07.041Z,100492.04
2018-01-26T12:36:12.443Z,100487.38
2018-01-26T12:37:18.175Z,100487.74
2018-01-26T12:38:24.665Z,100491.55
2018-01-26T12:39:30.465Z,100490.55
2018-01-26T12:40:36.390Z,100492.89